createdAt,value
2019-06-10T00:02:07.316Z,206.70
2019-06-10T00:04:38.627Z,129.33
2019-06-10T00:22:23.305Z,155.80
2019-06-10T00:27:55.196Z,30.27
2019-06-10T00:30:45.051Z,21.93
2019-06-10T00:36:18.479Z,9.50
2019-06-10T00:54:18.393Z,92.77
2019-06-10T00:57:09.365Z,186.73
2019-06-10T00:59:53.787Z,128.87
2019-06-10T01:05:32.137Z,83.00
2019-06-10T01:08:21.958Z,68.70
2019-06-10T01:11:21.350Z,66.40
2019-06-10T01:13:56.519Z,31.17
2019-06-10T01:16:46.327Z,29.27
2019-06-10T01:19:30.999Z,21.80
2019-06-10T01:22:21.262Z,21.33
2019-06-10T01:25:13.808Z,20.27
2019-06-10T01:27:56.271Z,20.50
2019-06-10T01:30:46.077Z,20.00
2019-06-10T01:33:35.823Z,19.37
2019-06-10T01:36:25.591Z,21.53
2019-06-10T01:39:16.802Z,19.90
2019-06-10T01:42:00.629Z,20.67
2019-06-10T01:44:50.729Z,21.60
2019-06-10T01:47:34.187Z,18.67
2019-06-10T01:50:24.226Z,20.73
2019-06-10T01:53:16.018Z,17.57
2019-06-10T01:56:01.000Z,17.87
2019-06-10T01:58:51.366Z,16.60
2019-06-10T02:04:40.997Z,16.80
2019-06-10T02:07:31.829Z,16.60
2019-06-10T02:10:16.804Z,16.97
2019-06-10T02:16:10.356Z,16.57
2019-06-10T02:19:03.417Z,15.63
2019-06-10T02:21:43.981Z,15.93
2019-06-10T02:24:33.910Z,16.30
2019-06-10T02:27:19.551Z,15.73
2019-06-10T02:30:19.986Z,16.00
2019-06-10T02:32:53.744Z,15.17
2019-06-10T02:35:48.790Z,15.23
2019-06-10T02:38:35.459Z,15.90
2019-06-10T02:41:26.182Z,15.13
2019-06-10T02:44:04.219Z,14.93
2019-06-10T02:46:54.634Z,14.50
2019-06-10T02:49:52.826Z,15.13
2019-06-10T02:55:30.808Z,15.00
2019-06-10T02:58:13.739Z,15.57
2019-06-10T03:01:04.272Z,17.57
2019-06-10T03:03:49.517Z,17.40
2019-06-10T03:06:40.158Z,17.30
2019-06-10T03:09:27.382Z,14.63
2019-06-10T03:12:33.225Z,15.17
2019-06-10T03:21:14.283Z,15.07
2019-06-10T03:24:04.026Z,14.87
2019-06-10T03:26:47.364Z,15.23
2019-06-10T03:29:37.117Z,14.73
2019-06-10T03:32:21.981Z,15.33
2019-06-10T03:35:13.220Z,16.20
2019-06-10T03:37:55.391Z,16.40
2019-06-10T03:40:45.177Z,15.30
2019-06-10T03:43:34.918Z,14.37
2019-06-10T03:46:18.966Z,14.30
2019-06-10T03:49:08.825Z,15.43
2019-06-10T03:51:52.913Z,14.80
2019-06-10T03:54:43.375Z,14.77
2019-06-10T03:57:28.716Z,15.47
2019-06-10T04:00:32.561Z,16.37
2019-06-10T04:03:14.810Z,18.30
2019-06-10T04:06:05.281Z,14.77
2019-06-10T04:08:55.068Z,14.47
2019-06-10T04:11:45.150Z,14.87
2019-06-10T04:14:35.758Z,12.90
2019-06-10T04:17:26.970Z,13.23
2019-06-10T04:20:13.159Z,15.17
2019-06-10T04:23:02.780Z,13.67
2019-06-10T04:25:45.319Z,13.30
2019-06-10T04:28:35.309Z,13.37
2019-06-10T04:31:18.185Z,11.70
2019-06-10T04:34:08.116Z,14.60
2019-06-10T04:36:57.932Z,12.23
2019-06-10T04:39:47.714Z,12.13
2019-06-10T04:42:37.477Z,11.60
2019-06-10T04:45:28.030Z,11.63
2019-06-10T04:48:12.465Z,11.37
2019-06-10T04:51:03.008Z,12.60
2019-06-10T04:53:46.589Z,12.57
2019-06-10T04:56:36.418Z,12.40
2019-06-10T04:59:45.228Z,12.37
2019-06-10T05:05:38.144Z,11.80
2019-06-10T05:08:21.571Z,13.17
2019-06-10T05:11:26.628Z,12.23
2019-06-10T05:14:08.416Z,14.23
2019-06-10T05:16:58.168Z,14.53
2019-06-10T05:19:42.702Z,13.50
2019-06-10T05:22:43.536Z,13.80
2019-06-10T05:25:28.466Z,14.67
2019-06-10T05:28:12.279Z,15.27
2019-06-10T05:36:18.672Z,15.20
2019-06-10T05:39:28.780Z,14.53
2019-06-10T05:42:12.795Z,13.57
2019-06-10T05:45:03.109Z,14.30
2019-06-10T05:47:49.568Z,14.30
2019-06-10T05:50:39.298Z,15.07
2019-06-10T05:53:23.093Z,15.63
2019-06-10T05:56:13.439Z,21.67
2019-06-10T05:58:55.705Z,17.13
2019-06-10T06:01:45.456Z,16.20
2019-06-10T06:04:28.185Z,16.73
2019-06-10T06:07:17.941Z,15.23
2019-06-10T06:10:02.506Z,15.70
2019-06-10T06:12:52.740Z,16.57
2019-06-10T06:15:37.916Z,19.07
2019-06-10T06:18:27.951Z,17.40
2019-06-10T06:21:22.346Z,17.80
2019-06-10T06:24:03.880Z,18.87
2019-06-10T06:26:45.979Z,16.20
2019-06-10T06:29:37.049Z,15.60
2019-06-10T06:32:19.430Z,16.33
2019-06-10T06:35:09.312Z,17.83
2019-06-10T06:37:53.985Z,16.47
2019-06-10T06:40:43.591Z,18.93
2019-06-10T06:43:29.081Z,18.20
2019-06-10T06:46:19.169Z,14.80
2019-06-10T06:49:08.897Z,12.80
2019-06-10T06:52:17.709Z,12.57
2019-06-10T06:55:02.331Z,12.93
2019-06-10T06:57:52.837Z,12.93
2019-06-10T07:00:52.928Z,13.60
2019-06-10T07:03:27.209Z,13.00
2019-06-10T07:06:09.525Z,14.10
2019-06-10T07:09:04.622Z,13.37
2019-06-10T07:11:45.233Z,13.17
2019-06-10T07:14:37.607Z,14.43
2019-06-10T07:17:19.535Z,12.77
2019-06-10T07:20:28.181Z,12.60
2019-06-10T07:23:10.195Z,11.43
2019-06-10T07:26:02.107Z,12.45
2019-06-10T07:28:47.531Z,13.88
2019-06-10T07:31:37.851Z,14.30
2019-06-10T07:34:22.307Z,10.90
2019-06-10T07:37:13.049Z,10.83
2019-06-10T07:39:56.758Z,10.20
2019-06-10T07:45:28.747Z,10.13
2019-06-10T07:48:39.554Z,10.77
2019-06-10T07:51:22.648Z,10.30
2019-06-10T07:54:12.580Z,10.43
2019-06-10T07:57:02.684Z,11.13
2019-06-10T07:59:45.980Z,11.20
2019-06-10T08:02:37.603Z,12.10
2019-06-10T08:05:23.395Z,12.07
2019-06-10T08:08:32.957Z,10.73
2019-06-10T08:11:16.775Z,10.03
2019-06-10T08:14:19.340Z,9.57
2019-06-10T08:17:03.114Z,9.40
2019-06-10T08:19:54.411Z,9.03
2019-06-10T08:22:45.155Z,8.68
2019-06-10T08:25:32.784Z,9.28
2019-06-10T08:28:15.831Z,9.13
2019-06-10T08:31:05.565Z,9.85
2019-06-10T08:33:49.178Z,8.38
2019-06-10T08:36:39.928Z,10.90
2019-06-10T08:39:23.231Z,8.45
2019-06-10T08:42:13.578Z,9.40
2019-06-10T08:44:59.818Z,8.28
2019-06-10T08:47:49.154Z,10.35
2019-06-10T08:50:33.909Z,9.35
2019-06-10T08:53:23.643Z,10.82
2019-06-10T08:56:06.164Z,12.28
2019-06-10T08:58:55.933Z,7.85
2019-06-10T09:01:39.470Z,12.90
2019-06-10T09:04:30.311Z,9.68
2019-06-10T09:07:14.546Z,9.83
2019-06-10T09:10:05.570Z,9.75
2019-06-10T09:12:51.333Z,8.93
2019-06-10T09:15:41.457Z,11.20
2019-06-10T09:18:24.510Z,12.60
2019-06-10T09:21:14.880Z,12.80
2019-06-10T09:24:00.053Z,13.47
2019-06-10T09:30:04.133Z,13.20
2019-06-10T09:32:56.469Z,13.97
2019-06-10T09:35:39.909Z,14.20
2019-06-10T09:41:36.101Z,14.97
2019-06-10T09:44:15.019Z,15.80
2019-06-10T09:51:17.147Z,13.33
2019-06-10T09:54:07.166Z,14.30
2019-06-10T09:56:54.574Z,13.03
2019-06-10T09:59:46.342Z,11.83
2019-06-10T10:05:23.316Z,15.93
2019-06-10T10:11:08.991Z,19.43
2019-06-10T10:13:58.806Z,17.90
2019-06-10T10:16:53.798Z,14.10
2019-06-10T10:19:32.363Z,13.67
2019-06-10T10:22:22.888Z,14.40
2019-06-10T10:25:06.096Z,16.73
2019-06-10T10:27:57.550Z,14.60
2019-06-10T10:30:42.521Z,13.73
2019-06-10T10:33:33.375Z,17.17
2019-06-10T10:36:15.079Z,13.83
2019-06-10T10:39:06.871Z,16.93
2019-06-10T10:41:50.228Z,17.83
2019-06-10T10:44:40.369Z,16.47
2019-06-10T10:47:25.151Z,16.53
2019-06-10T10:50:14.657Z,16.57
2019-06-10T10:56:02.283Z,13.13
2019-06-10T10:58:55.847Z,28.77
2019-06-10T11:01:36.244Z,22.57
2019-06-10T11:07:29.244Z,32.47
2019-06-10T11:10:12.813Z,24.27
2019-06-10T11:13:24.755Z,27.27
2019-06-10T11:16:07.290Z,25.27
2019-06-10T11:18:58.033Z,25.30
2019-06-10T11:21:42.702Z,19.83
2019-06-10T11:27:33.213Z,20.07
2019-06-10T11:30:15.994Z,23.53
2019-06-10T11:33:06.006Z,18.40
2019-06-10T11:35:58.063Z,25.43
2019-06-10T11:38:42.003Z,21.53
2019-06-10T11:41:32.478Z,19.57
2019-06-10T11:44:15.513Z,22.07
2019-06-10T11:50:23.240Z,22.90
2019-06-10T11:53:06.082Z,21.37
2019-06-10T11:55:56.409Z,20.53
2019-06-10T11:58:47.892Z,20.63
2019-06-10T12:01:19.774Z,21.37
2019-06-10T12:04:09.510Z,15.33
2019-06-10T12:06:59.250Z,16.00
2019-06-10T12:09:42.524Z,14.73
2019-06-10T12:12:33.763Z,14.27
2019-06-10T12:21:13.429Z,20.90
2019-06-10T12:33:03.005Z,13.73
2019-06-10T12:35:33.388Z,18.00
2019-06-10T12:38:16.770Z,16.30
2019-06-10T13:03:08.298Z,22.17
2019-06-10T13:09:12.904Z,28.30
2019-06-10T13:12:04.056Z,26.53
2019-06-10T13:14:47.105Z,22.33
2019-06-10T13:20:43.448Z,23.30
2019-06-10T13:23:31.834Z,23.57
2019-06-10T13:26:19.051Z,20.93
2019-06-10T13:29:05.000Z,24.73
2019-06-10T13:31:53.474Z,26.00
2019-06-10T13:34:37.271Z,23.93
2019-06-10T13:37:27.017Z,20.87
2019-06-10T13:40:12.322Z,15.73
2019-06-10T13:43:01.813Z,17.53
2019-06-10T13:45:44.411Z,17.00
2019-06-10T13:48:34.168Z,18.40
2019-06-10T13:51:17.065Z,13.40
2019-06-10T13:54:09.172Z,14.57
2019-06-10T13:56:52.357Z,17.50
2019-06-10T13:59:42.949Z,16.73
2019-06-10T14:02:26.373Z,20.53
2019-06-10T14:05:18.426Z,15.40
2019-06-10T14:08:03.136Z,17.57
2019-06-10T14:10:54.095Z,17.73
2019-06-10T14:13:36.807Z,18.67
2019-06-10T14:16:29.570Z,13.37
2019-06-10T14:19:16.206Z,11.13
2019-06-10T14:22:07.944Z,14.07
2019-06-10T14:24:52.865Z,11.57
2019-06-10T14:28:03.210Z,13.73
2019-06-10T14:30:44.996Z,12.63
2019-06-10T14:33:16.732Z,10.90
2019-06-10T14:36:05.031Z,7.50
2019-06-10T14:38:53.322Z,10.63
2019-06-10T14:41:36.592Z,9.20
2019-06-10T14:44:26.310Z,6.67
2019-06-10T14:47:09.098Z,8.65
2019-06-10T14:49:58.821Z,9.95
2019-06-10T14:52:43.239Z,10.23
2019-06-10T14:55:34.023Z,8.55
2019-06-10T14:58:19.405Z,9.90
2019-06-10T15:01:11.390Z,8.43
2019-06-10T15:03:52.536Z,11.17
2019-06-10T15:06:43.241Z,6.33
2019-06-10T15:09:26.849Z,6.53
2019-06-10T15:12:17.518Z,9.27
2019-06-10T15:15:00.861Z,6.78
2019-06-10T15:17:52.478Z,5.70
2019-06-10T15:20:35.021Z,7.05
2019-06-10T15:23:24.761Z,7.17
2019-06-10T15:26:09.910Z,8.98
2019-06-10T15:29:02.609Z,6.58
2019-06-10T15:31:46.843Z,7.17
2019-06-10T15:34:36.633Z,7.47
2019-06-10T15:37:21.267Z,6.55
2019-06-10T15:40:14.015Z,6.90
2019-06-10T15:42:56.767Z,5.22
2019-06-10T15:45:47.090Z,7.40
2019-06-10T15:48:31.448Z,8.90
2019-06-10T15:54:20.438Z,6.17
2019-06-10T15:57:22.707Z,6.15
2019-06-10T15:59:54.395Z,7.47
2019-06-10T16:02:44.841Z,9.93
2019-06-10T16:05:28.225Z,5.80
2019-06-10T16:08:18.636Z,10.38
2019-06-10T16:14:02.861Z,7.85
2019-06-10T16:16:53.480Z,13.30
2019-06-10T16:19:43.295Z,7.47
2019-06-10T16:22:33.840Z,8.38
2019-06-10T16:25:26.489Z,8.30
2019-06-10T16:28:08.615Z,6.83
2019-06-10T16:31:13.155Z,9.23
2019-06-10T16:33:55.055Z,8.70
2019-06-10T16:36:44.833Z,6.70
2019-06-10T16:39:27.573Z,8.50
2019-06-10T16:42:17.472Z,7.93
2019-06-10T16:45:02.361Z,7.37
2019-06-10T16:47:53.083Z,11.60
2019-06-10T16:50:36.897Z,10.15
2019-06-10T16:53:19.928Z,9.13
2019-06-10T16:59:07.411Z,10.43
2019-06-10T17:02:17.180Z,11.00
2019-06-10T17:05:03.193Z,11.93
2019-06-10T17:07:52.819Z,10.07
2019-06-10T17:10:35.222Z,9.67
2019-06-10T17:16:29.686Z,10.37
2019-06-10T17:19:21.237Z,11.03
2019-06-10T17:22:03.665Z,14.83
2019-06-10T17:24:53.726Z,9.80
2019-06-10T17:27:37.838Z,10.97
2019-06-10T17:30:28.482Z,10.13
2019-06-10T17:33:12.988Z,11.30
2019-06-10T17:36:03.595Z,12.83
2019-06-10T17:38:47.736Z,15.90
2019-06-10T17:41:37.698Z,16.07
2019-06-10T17:44:23.302Z,25.67
2019-06-10T17:47:13.250Z,15.63
2019-06-10T17:49:54.996Z,16.73
2019-06-10T17:52:44.806Z,16.23
2019-06-10T17:55:28.172Z,10.93
2019-06-10T17:58:31.774Z,13.33
2019-06-10T18:01:03.337Z,15.27
2019-06-10T18:03:53.164Z,12.73
2019-06-10T18:06:56.902Z,11.83
2019-06-10T18:09:39.827Z,13.30
2019-06-10T18:12:30.033Z,13.90
2019-06-10T18:15:13.823Z,12.37
2019-06-10T18:18:03.701Z,12.17
2019-06-10T18:20:47.708Z,12.33
2019-06-10T18:23:38.568Z,14.33
2019-06-10T18:26:23.247Z,15.47
2019-06-10T18:29:13.350Z,12.67
2019-06-10T18:31:56.185Z,9.60
2019-06-10T18:34:45.960Z,10.07
2019-06-10T18:37:30.496Z,10.67
2019-06-10T18:40:42.820Z,11.83
2019-06-10T18:43:24.954Z,9.93
2019-06-10T18:46:14.706Z,9.40
2019-06-10T18:49:02.783Z,11.40
2019-06-10T18:51:53.337Z,10.17
2019-06-10T18:54:37.201Z,9.83
2019-06-10T18:57:28.679Z,13.20
2019-06-10T19:00:14.667Z,13.53
2019-06-10T19:03:12.603Z,11.00
2019-06-10T19:05:48.021Z,12.23
2019-06-10T19:08:39.337Z,13.53
2019-06-10T19:11:22.286Z,11.80
2019-06-10T19:14:12.778Z,14.63
2019-06-10T19:16:56.140Z,13.03
2019-06-10T19:22:43.182Z,13.23
2019-06-10T19:25:36.912Z,15.43
2019-06-10T19:28:17.915Z,14.17
2019-06-10T19:31:20.249Z,14.80
2019-06-10T19:34:04.327Z,14.97
2019-06-10T19:36:54.083Z,12.37
2019-06-10T19:39:42.527Z,15.53
2019-06-10T19:42:27.780Z,14.00
2019-06-10T19:45:12.349Z,14.23
2019-06-10T19:48:03.409Z,20.30
2019-06-10T19:50:50.164Z,15.07
2019-06-10T19:53:37.336Z,13.80
2019-06-10T19:56:24.208Z,14.87
2019-06-10T20:02:14.360Z,15.27
2019-06-10T20:05:04.262Z,12.90
2019-06-10T20:07:50.337Z,10.77
2019-06-10T20:10:38.357Z,7.50
2019-06-10T20:13:22.532Z,3.73
2019-06-10T20:19:07.633Z,4.83
2019-06-10T20:21:57.429Z,2.30
2019-06-10T20:24:54.959Z,3.93
2019-06-10T20:27:45.496Z,4.43
2019-06-10T20:30:29.585Z,2.40
2019-06-10T20:36:27.071Z,3.33
2019-06-10T20:39:08.965Z,3.07
2019-06-10T20:41:58.709Z,3.80
2019-06-10T20:44:42.852Z,3.10
2019-06-10T20:50:33.588Z,2.80
2019-06-10T20:53:23.367Z,3.63
2019-06-10T20:56:06.248Z,3.63
2019-06-10T20:58:56.032Z,3.43
2019-06-10T21:01:27.126Z,2.83
2019-06-10T21:03:57.823Z,5.00
2019-06-10T21:10:12.842Z,3.50
2019-06-10T21:12:58.158Z,3.40
2019-06-10T21:15:50.375Z,5.03
2019-06-10T21:18:33.118Z,3.50
2019-06-10T21:21:22.926Z,3.07
2019-06-10T21:24:05.386Z,4.33
2019-06-10T21:26:55.505Z,4.97
2019-06-10T21:29:46.963Z,3.13
2019-06-10T21:32:29.050Z,2.80
2019-06-10T21:35:18.846Z,5.27
2019-06-10T21:38:08.622Z,2.90
2019-06-10T21:40:58.344Z,4.53
2019-06-10T21:43:45.933Z,3.23
2019-06-10T21:46:32.809Z,3.37
2019-06-10T21:49:23.616Z,5.93
2019-06-10T21:52:06.574Z,4.90
2019-06-10T21:54:56.524Z,3.30
2019-06-10T21:57:47.150Z,3.03
2019-06-10T22:03:51.987Z,3.53
2019-06-10T22:06:29.777Z,4.17
2019-06-10T22:09:32.447Z,3.73
2019-06-10T22:12:14.820Z,4.13
2019-06-10T22:15:23.732Z,3.60
2019-06-10T22:18:06.351Z,3.07
2019-06-10T22:20:57.732Z,4.57
2019-06-10T22:23:42.352Z,3.20
2019-06-10T22:26:32.364Z,5.90
2019-06-10T22:29:16.763Z,4.67
2019-06-10T22:35:07.925Z,6.83
2019-06-10T22:37:57.631Z,4.90
2019-06-10T22:40:39.677Z,4.50
2019-06-10T22:43:29.421Z,4.60
2019-06-10T22:46:12.331Z,3.83
2019-06-10T22:49:02.993Z,3.33
2019-06-10T22:51:46.439Z,3.10
2019-06-10T22:54:36.237Z,3.07
2019-06-10T22:57:19.088Z,3.07
2019-06-10T23:03:07.676Z,5.37
2019-06-10T23:05:50.540Z,4.10
2019-06-10T23:08:40.517Z,5.93
2019-06-10T23:14:22.851Z,4.80
2019-06-10T23:16:55.262Z,3.60
2019-06-10T23:19:38.127Z,4.27
2019-06-10T23:22:28.270Z,4.10
2019-06-10T23:25:12.709Z,3.60
2019-06-10T23:28:02.495Z,4.03
2019-06-10T23:30:45.597Z,3.80
2019-06-10T23:33:35.399Z,3.33
2019-06-10T23:36:17.394Z,4.07
2019-06-10T23:39:07.509Z,3.33
2019-06-10T23:41:51.153Z,3.50
2019-06-10T23:44:42.053Z,6.03
2019-06-10T23:47:24.125Z,5.40
2019-06-10T23:50:14.451Z,4.63
2019-06-10T23:53:00.159Z,4.60
2019-06-10T23:55:48.875Z,3.43
2019-06-10T23:58:32.879Z,3.87
